sensor_id;sensor_type;location;lat;lon;timestamp;pressure;altitude;pressure_sealevel;temperature;humidity
7614;BME280;3848;42.016;23.098;2023-11-19T00:01:00;97089.34;;;6.50;100.00
7614;BME280;3848;42.016;23.098;2023-11-19T00:03:26;97080.94;;;6.50;100.00
7614;BME280;3848;42.016;23.098;2023-11-19T00:05:53;97096.06;;;6.47;100.00
7614;BME280;3848;42.016;23.098;2023-11-19T00:08:21;97101.03;;;6.42;100.00
7614;BME280;3848;42.016;23.098;2023-11-19T00:10:51;97096.00;;;6.42;100.00
7614;BME280;3848;42.016;23.098;2023-11-19T00:13:18;97083.31;;;6.31;100.00
7614;BME280;3848;42.016;23.098;2023-11-19T00:15:45;97098.47;;;6.34;100.00
7614;BME280;3848;42.016;23.098;2023-11-19T00:18:13;97096.78;;;6.33;100.00
7614;BME280;3848;42.016;23.098;2023-11-19T00:20:40;97106.91;;;6.38;100.00
7614;BME280;3848;42.016;23.098;2023-11-19T00:23:16;97115.34;;;6.43;100.00
7614;BME280;3848;42.016;23.098;2023-11-19T00:25:43;97116.19;;;6.42;100.00
7614;BME280;3848;42.016;23.098;2023-11-19T00:28:11;97107.84;;;6.46;100.00
7614;BME280;3848;42.016;23.098;2023-11-19T00:30:38;97101.88;;;6.42;100.00
7614;BME280;3848;42.016;23.098;2023-11-19T00:33:06;97105.22;;;6.35;100.00
7614;BME280;3848;42.016;23.098;2023-11-19T00:35:33;97122.06;;;6.42;100.00
7614;BME280;3848;42.016;23.098;2023-11-19T00:38:01;97129.72;;;6.47;100.00
7614;BME280;3848;42.016;23.098;2023-11-19T00:40:28;97124.69;;;6.50;100.00
7614;BME280;3848;42.016;23.098;2023-11-19T00:42:55;97129.72;;;6.50;100.00
7614;BME280;3848;42.016;23.098;2023-11-19T00:45:23;97126.31;;;6.45;100.00
7614;BME280;3848;42.016;23.098;2023-11-19T00:47:50;97131.34;;;6.45;100.00
7614;BME280;3848;42.016;23.098;2023-11-19T00:50:17;97140.66;;;6.48;100.00
7614;BME280;3848;42.016;23.098;2023-11-19T00:52:44;97126.25;;;6.39;100.00
7614;BME280;3848;42.016;23.098;2023-11-19T00:55:12;97123.75;;;6.42;100.00
7614;BME280;3848;42.016;23.098;2023-11-19T00:57:39;97142.25;;;6.41;100.00
7614;BME280;3848;42.016;23.098;2023-11-19T01:00:07;97142.25;;;6.39;100.00
7614;BME280;3848;42.016;23.098;2023-11-19T01:02:45;97140.53;;;6.35;100.00
7614;BME280;3848;42.016;23.098;2023-11-19T01:05:15;97154.84;;;6.38;100.00
7614;BME280;3848;42.016;23.098;2023-11-19T01:07:41;97143.94;;;6.40;100.00
7614;BME280;3848;42.016;23.098;2023-11-19T01:10:09;97156.53;;;6.39;100.00
7614;BME280;3848;42.016;23.098;2023-11-19T01:12:35;97153.19;;;6.40;100.00
7614;BME280;3848;42.016;23.098;2023-11-19T01:15:03;97153.16;;;6.37;100.00
7614;BME280;3848;42.016;23.098;2023-11-19T01:17:30;97157.34;;;6.33;100.00
7614;BME280;3848;42.016;23.098;2023-11-19T01:19:59;97147.31;;;6.41;100.00
7614;BME280;3848;42.016;23.098;2023-11-19T01:22:26;97153.19;;;6.38;100.00
7614;BME280;3848;42.016;23.098;2023-11-19T01:24:53;97157.38;;;6.38;100.00
7614;BME280;3848;42.016;23.098;2023-11-19T01:27:20;97154.03;;;6.39;100.00
7614;BME280;3848;42.016;23.098;2023-11-19T01:29:46;97153.19;;;6.40;100.00
7614;BME280;3848;42.016;23.098;2023-11-19T01:32:13;97139.72;;;6.39;100.00
7614;BME280;3848;42.016;23.098;2023-11-19T01:34:40;97152.34;;;6.38;100.00
7614;BME280;3848;42.016;23.098;2023-11-19T01:37:08;97159.91;;;6.38;100.00
7614;BME280;3848;42.016;23.098;2023-11-19T01:39:37;97167.44;;;6.35;100.00
7614;BME280;3848;42.016;23.098;2023-11-19T01:42:05;97162.34;;;6.29;100.00
7614;BME280;3848;42.016;23.098;2023-11-19T01:44:32;97169.94;;;6.32;100.00
7614;BME280;3848;42.016;23.098;2023-11-19T01:46:59;97167.44;;;6.35;100.00
7614;BME280;3848;42.016;23.098;2023-11-19T01:49:27;97163.25;;;6.34;100.00
7614;BME280;3848;42.016;23.098;2023-11-19T01:51:57;97143.84;;;6.28;100.00
7614;BME280;3848;42.016;23.098;2023-11-19T01:54:26;97154.88;;;6.39;100.00
7614;BME280;3848;42.016;23.098;2023-11-19T01:56:54;97145.63;;;6.41;100.00
7614;BME280;3848;42.016;23.098;2023-11-19T01:59:24;97142.19;;;6.32;100.00
7614;BME280;3848;42.016;23.098;2023-11-19T02:01:53;97142.19;;;6.33;100.00
7614;BME280;3848;42.016;23.098;2023-11-19T02:04:20;97169.97;;;6.36;100.00
7614;BME280;3848;42.016;23.098;2023-11-19T02:06:51;97161.44;;;6.22;100.00
7614;BME280;3848;42.016;23.098;2023-11-19T02:09:20;97172.47;;;6.30;100.00
7614;BME280;3848;42.016;23.098;2023-11-19T02:11:49;97154.72;;;6.23;100.00
7614;BME280;3848;42.016;23.098;2023-11-19T02:14:17;97163.19;;;6.28;100.00
7614;BME280;3848;42.016;23.098;2023-11-19T02:16:45;97153.06;;;6.25;100.00
7614;BME280;3848;42.016;23.098;2023-11-19T02:19:12;97140.41;;;6.23;100.00
7614;BME280;3848;42.016;23.098;2023-11-19T02:21:39;97136.19;;;6.21;100.00
7614;BME280;3848;42.016;23.098;2023-11-19T02:24:10;97147.16;;;6.24;100.00
7614;BME280;3848;42.016;23.098;2023-11-19T02:26:42;97148.03;;;6.25;100.00
7614;BME280;3848;42.016;23.098;2023-11-19T02:29:13;97153.03;;;6.23;100.00
7614;BME280;3848;42.016;23.098;2023-11-19T02:31:40;97136.91;;;6.06;100.00
7614;BME280;3848;42.016;23.098;2023-11-19T02:34:07;97144.56;;;6.15;100.00
7614;BME280;3848;42.016;23.098;2023-11-19T02:36:34;97174.91;;;6.24;100.00
7614;BME280;3848;42.016;23.098;2023-11-19T02:39:01;97172.34;;;6.21;100.00
7614;BME280;3848;42.016;23.098;2023-11-19T02:41:28;97170.72;;;6.25;100.00
7614;BME280;3848;42.016;23.098;2023-11-19T02:43:55;97180.03;;;6.32;100.00
7614;BME280;3848;42.016;23.098;2023-11-19T02:46:23;97159.81;;;6.27;100.00
7614;BME280;3848;42.016;23.098;2023-11-19T02:48:51;97154.72;;;6.24;100.00
7614;BME280;3848;42.016;23.098;2023-11-19T02:51:18;97154.69;;;6.21;100.00
7614;BME280;3848;42.016;23.098;2023-11-19T02:53:45;97159.72;;;6.18;100.00
7614;BME280;3848;42.016;23.098;2023-11-19T02:56:13;97156.34;;;6.18;100.00
7614;BME280;3848;42.016;23.098;2023-11-19T02:58:46;97156.34;;;6.16;100.00
7614;BME280;3848;42.016;23.098;2023-11-19T03:01:23;97161.34;;;6.11;100.00
7614;BME280;3848;42.016;23.098;2023-11-19T03:03:55;97167.19;;;6.07;100.00
7614;BME280;3848;42.016;23.098;2023-11-19T03:06:23;97163.84;;;6.10;100.00
7614;BME280;3848;42.016;23.098;2023-11-19T03:08:50;97162.19;;;6.10;100.00
7614;BME280;3848;42.016;23.098;2023-11-19T03:11:16;97168.09;;;6.16;100.00
7614;BME280;3848;42.016;23.098;2023-11-19T03:13:43;97170.56;;;6.09;100.00
7614;BME280;3848;42.016;23.098;2023-11-19T03:16:10;97173.00;;;6.03;100.00
7614;BME280;3848;42.016;23.098;2023-11-19T03:18:39;97176.38;;;6.02;100.00
7614;BME280;3848;42.016;23.098;2023-11-19T03:21:06;97177.19;;;6.01;100.00
7614;BME280;3848;42.016;23.098;2023-11-19T03:23:34;97175.50;;;5.99;100.00
7614;BME280;3848;42.016;23.098;2023-11-19T03:26:01;97180.53;;;5.99;100.00
7614;BME280;3848;42.016;23.098;2023-11-19T03:28:31;97189.78;;;5.97;100.00
7614;BME280;3848;42.016;23.098;2023-11-19T03:30:57;97183.91;;;6.01;100.00
7614;BME280;3848;42.016;23.098;2023-11-19T03:33:24;97169.63;;;6.01;100.00
7614;BME280;3848;42.016;23.098;2023-11-19T03:35:54;97168.75;;;5.96;100.00
7614;BME280;3848;42.016;23.098;2023-11-19T03:38:23;97174.75;;;6.04;100.00
7614;BME280;3848;42.016;23.098;2023-11-19T03:40:50;97177.28;;;6.06;100.00
7614;BME280;3848;42.016;23.098;2023-11-19T03:43:17;97183.16;;;6.06;100.00
7614;BME280;3848;42.016;23.098;2023-11-19T03:45:44;97177.31;;;6.10;100.00
7614;BME280;3848;42.016;23.098;2023-11-19T03:48:11;97139.97;;;5.82;100.00
7614;BME280;3848;42.016;23.098;2023-11-19T03:50:38;97189.09;;;6.13;100.00
7614;BME280;3848;42.016;23.098;2023-11-19T03:53:06;97186.53;;;6.08;100.00
7614;BME280;3848;42.016;23.098;2023-11-19T03:55:33;97177.31;;;6.10;100.00
7614;BME280;3848;42.016;23.098;2023-11-19T03:58:00;97178.06;;;6.03;100.00
7614;BME280;3848;42.016;23.098;2023-11-19T04:00:27;97188.13;;;6.00;100.00
7614;BME280;3848;42.016;23.098;2023-11-19T04:02:54;97192.31;;;6.00;100.00
7614;BME280;3848;42.016;23.098;2023-11-19T04:05:20;97196.53;;;6.02;100.00
7614;BME280;3848;42.016;23.098;2023-11-19T04:07:46;97200.75;;;6.02;100.00
7614;BME280;3848;42.016;23.098;2023-11-19T04:10:14;97209.13;;;5.99;100.00
7614;BME280;3848;42.016;23.098;2023-11-19T04:12:42;97209.13;;;5.98;100.00
7614;BME280;3848;42.016;23.098;2023-11-19T04:15:10;97184.50;;;5.80;100.00
7614;BME280;3848;42.016;23.098;2023-11-19T04:17:37;97209.91;;;5.92;100.00
7614;BME280;3848;42.016;23.098;2023-11-19T04:20:05;97198.03;;;5.85;100.00
7614;BME280;3848;42.016;23.098;2023-11-19T04:22:36;97222.44;;;5.89;100.00
7614;BME280;3848;42.016;23.098;2023-11-19T04:25:03;97219.97;;;5.92;100.00
7614;BME280;3848;42.016;23.098;2023-11-19T04:27:32;97214.16;;;5.98;100.00
7614;BME280;3848;42.016;23.098;2023-11-19T04:29:59;97213.28;;;5.94;100.00
7614;BME280;3848;42.016;23.098;2023-11-19T04:32:27;97217.47;;;5.92;100.00
7614;BME280;3848;42.016;23.098;2023-11-19T04:34:54;97219.97;;;5.92;100.00
7614;BME280;3848;42.016;23.098;2023-11-19T04:37:21;97219.97;;;5.92;100.00
7614;BME280;3848;42.016;23.098;2023-11-19T04:39:48;97213.28;;;5.96;100.00
7614;BME280;3848;42.016;23.098;2023-11-19T04:42:15;97209.91;;;5.92;100.00
7614;BME280;3848;42.016;23.098;2023-11-19T04:44:44;97214.97;;;5.95;100.00
7614;BME280;3848;42.016;23.098;2023-11-19T04:47:11;97226.75;;;5.96;100.00
7614;BME280;3848;42.016;23.098;2023-11-19T04:49:40;97231.75;;;5.93;100.00
7614;BME280;3848;42.016;23.098;2023-11-19T04:52:08;97230.97;;;5.99;100.00
7614;BME280;3848;42.016;23.098;2023-11-19T04:54:35;97241.94;;;6.02;100.00
7614;BME280;3848;42.016;23.098;2023-11-19T04:57:02;97236.97;;;6.05;100.00
7614;BME280;3848;42.016;23.098;2023-11-19T04:59:29;97236.91;;;6.02;100.00
7614;BME280;3848;42.016;23.098;2023-11-19T05:01:58;97231.00;;;6.02;100.00
7614;BME280;3848;42.016;23.098;2023-11-19T05:04:24;97231.00;;;6.00;100.00
7614;BME280;3848;42.016;23.098;2023-11-19T05:06:51;97226.88;;;6.05;100.00
7614;BME280;3848;42.016;23.098;2023-11-19T05:09:18;97221.00;;;6.06;100.00
7614;BME280;3848;42.016;23.098;2023-11-19T05:11:45;97186.34;;;5.90;100.00
7614;BME280;3848;42.016;23.098;2023-11-19T05:14:12;97210.75;;;5.93;100.00
7614;BME280;3848;42.016;23.098;2023-11-19T05:16:39;97227.63;;;6.00;100.00
7614;BME280;3848;42.016;23.098;2023-11-19T05:19:07;97230.88;;;5.90;100.00
7614;BME280;3848;42.016;23.098;2023-11-19T05:21:34;97235.03;;;5.86;100.00
7614;BME280;3848;42.016;23.098;2023-11-19T05:24:02;97256.13;;;5.91;100.00
7614;BME280;3848;42.016;23.098;2023-11-19T05:26:30;97240.91;;;5.87;100.00
7614;BME280;3848;42.016;23.098;2023-11-19T05:28:57;97256.19;;;5.97;100.00
7614;BME280;3848;42.016;23.098;2023-11-19T05:31:24;97252.75;;;5.92;100.00
7614;BME280;3848;42.016;23.098;2023-11-19T05:33:50;97249.31;;;5.86;100.00
7614;BME280;3848;42.016;23.098;2023-11-19T05:36:19;97238.28;;;5.79;100.00
7614;BME280;3848;42.016;23.098;2023-11-19T05:38:46;97233.16;;;5.73;100.00
7614;BME280;3848;42.016;23.098;2023-11-19T05:41:13;97250.16;;;5.86;100.00
7614;BME280;3848;42.016;23.098;2023-11-19T05:43:40;97246.78;;;5.87;100.00
7614;BME280;3848;42.016;23.098;2023-11-19T05:46:07;97246.06;;;5.93;100.00
7614;BME280;3848;42.016;23.098;2023-11-19T05:48:34;97248.59;;;5.94;100.00
7614;BME280;3848;42.016;23.098;2023-11-19T05:51:01;97255.22;;;5.89;100.00
7614;BME280;3848;42.016;23.098;2023-11-19T05:53:29;97246.88;;;5.90;100.00
7614;BME280;3848;42.016;23.098;2023-11-19T05:55:57;97247.72;;;5.91;100.00
7614;BME280;3848;42.016;23.098;2023-11-19T05:58:24;97247.75;;;5.94;100.00
7614;BME280;3848;42.016;23.098;2023-11-19T06:00:54;97243.53;;;5.93;100.00
7614;BME280;3848;42.016;23.098;2023-11-19T06:03:21;97240.09;;;5.89;100.00
7614;BME280;3848;42.016;23.098;2023-11-19T06:05:48;97248.59;;;5.94;100.00
7614;BME280;3848;42.016;23.098;2023-11-19T06:08:15;97247.75;;;5.94;100.00
7614;BME280;3848;42.016;23.098;2023-11-19T06:10:44;97254.44;;;5.90;100.00
7614;BME280;3848;42.016;23.098;2023-11-19T06:13:12;97267.03;;;5.90;100.00
7614;BME280;3848;42.016;23.098;2023-11-19T06:15:40;97277.16;;;5.93;100.00
7614;BME280;3848;42.016;23.098;2023-11-19T06:18:07;97292.31;;;5.96;100.00
7614;BME280;3848;42.016;23.098;2023-11-19T06:20:35;97289.78;;;5.96;100.00
7614;BME280;3848;42.016;23.098;2023-11-19T06:23:02;97291.59;;;6.05;100.00
7614;BME280;3848;42.016;23.098;2023-11-19T06:25:29;97289.94;;;6.05;100.00
7614;BME280;3848;42.016;23.098;2023-11-19T06:27:57;97285.78;;;6.12;100.00
7614;BME280;3848;42.016;23.098;2023-11-19T06:30:24;97259.53;;;5.95;100.00
7614;BME280;3848;42.016;23.098;2023-11-19T06:32:52;97279.88;;;6.08;100.00
7614;BME280;3848;42.016;23.098;2023-11-19T06:35:18;97278.09;;;6.03;100.00
7614;BME280;3848;42.016;23.098;2023-11-19T06:37:45;97289.03;;;6.03;100.00
7614;BME280;3848;42.016;23.098;2023-11-19T06:40:12;97278.84;;;5.94;100.00
7614;BME280;3848;42.016;23.098;2023-11-19T06:42:41;97286.38;;;5.91;100.00
7614;BME280;3848;42.016;23.098;2023-11-19T06:45:09;97294.88;;;5.99;100.00
7614;BME280;3848;42.016;23.098;2023-11-19T06:47:36;97290.75;;;6.04;100.00
7614;BME280;3848;42.016;23.098;2023-11-19T06:50:04;97289.91;;;6.04;100.00
7614;BME280;3848;42.016;23.098;2023-11-19T06:52:32;97303.44;;;6.12;100.00
7614;BME280;3848;42.016;23.098;2023-11-19T06:54:59;97293.38;;;6.14;100.00
7614;BME280;3848;42.016;23.098;2023-11-19T06:57:26;97271.25;;;5.93;100.00
7614;BME280;3848;42.016;23.098;2023-11-19T06:59:54;97302.41;;;5.98;100.00
7614;BME280;3848;42.016;23.098;2023-11-19T07:02:23;97302.41;;;5.96;100.00
7614;BME280;3848;42.016;23.098;2023-11-19T07:04:50;97297.31;;;5.93;100.00
7614;BME280;3848;42.016;23.098;2023-11-19T07:07:16;97286.44;;;5.96;100.00
7614;BME280;3848;42.016;23.098;2023-11-19T07:09:43;97298.28;;;6.03;100.00
7614;BME280;3848;42.016;23.098;2023-11-19T07:12:10;97305.03;;;6.04;100.00
7614;BME280;3848;42.016;23.098;2023-11-19T07:14:38;97311.03;;;6.14;100.00
7614;BME280;3848;42.016;23.098;2023-11-19T07:17:05;97319.47;;;6.16;100.00
7614;BME280;3848;42.016;23.098;2023-11-19T07:19:34;97324.56;;;6.20;100.00
7614;BME280;3848;42.016;23.098;2023-11-19T07:22:04;97305.25;;;6.22;100.00
7614;BME280;3848;42.016;23.098;2023-11-19T07:24:31;97323.75;;;6.24;100.00
7614;BME280;3848;42.016;23.098;2023-11-19T07:26:58;97336.47;;;6.29;100.00
7614;BME280;3848;42.016;23.098;2023-11-19T07:29:25;97326.34;;;6.26;100.00
7614;BME280;3848;42.016;23.098;2023-11-19T07:31:52;97333.09;;;6.30;100.00
7614;BME280;3848;42.016;23.098;2023-11-19T07:34:18;97325.50;;;6.27;100.00
7614;BME280;3848;42.016;23.098;2023-11-19T07:36:48;97315.34;;;6.22;100.00
7614;BME280;3848;42.016;23.098;2023-11-19T07:39:14;97315.34;;;6.22;100.00
7614;BME280;3848;42.016;23.098;2023-11-19T07:41:41;97325.50;;;6.25;100.00
7614;BME280;3848;42.016;23.098;2023-11-19T07:44:08;97315.41;;;6.25;100.00
7614;BME280;3848;42.016;23.098;2023-11-19T07:46:36;97326.44;;;6.35;100.00
7614;BME280;3848;42.016;23.098;2023-11-19T07:49:03;97330.66;;;6.37;100.00
7614;BME280;3848;42.016;23.098;2023-11-19T07:51:30;97345.09;;;6.49;100.00
7614;BME280;3848;42.016;23.098;2023-11-19T07:53:58;97332.50;;;6.51;100.00
7614;BME280;3848;42.016;23.098;2023-11-19T07:56:25;97346.03;;;6.57;100.00
7614;BME280;3848;42.016;23.098;2023-11-19T07:58:51;97343.53;;;6.60;100.00
7614;BME280;3848;42.016;23.098;2023-11-19T08:01:18;97340.94;;;6.54;99.81
7614;BME280;3848;42.016;23.098;2023-11-19T08:03:45;97342.63;;;6.54;100.00
7614;BME280;3848;42.016;23.098;2023-11-19T08:06:12;97324.09;;;6.50;100.00
7614;BME280;3848;42.016;23.098;2023-11-19T08:08:39;97245.31;;;6.03;100.00
7614;BME280;3848;42.016;23.098;2023-11-19T08:11:07;97320.63;;;6.43;100.00
7614;BME280;3848;42.016;23.098;2023-11-19T08:13:34;97329.84;;;6.40;100.00
7614;BME280;3848;42.016;23.098;2023-11-19T08:16:01;97332.88;;;6.11;100.00
7614;BME280;3848;42.016;23.098;2023-11-19T08:18:28;97343.91;;;6.20;100.00
7614;BME280;3848;42.016;23.098;2023-11-19T08:20:55;97346.53;;;6.26;100.00
7614;BME280;3848;42.016;23.098;2023-11-19T08:23:23;97361.78;;;6.38;100.00
7614;BME280;3848;42.016;23.098;2023-11-19T08:25:51;97354.31;;;6.46;100.00
7614;BME280;3848;42.016;23.098;2023-11-19T08:28:19;97362.00;;;6.56;100.00
7614;BME280;3848;42.016;23.098;2023-11-19T08:30:47;97369.72;;;6.67;98.45
7614;BME280;3848;42.016;23.098;2023-11-19T08:33:13;97378.22;;;6.77;96.64
7614;BME280;3848;42.016;23.098;2023-11-19T08:35:40;97375.75;;;6.83;96.25
7614;BME280;3848;42.016;23.098;2023-11-19T08:38:07;97374.19;;;6.94;94.15
7614;BME280;3848;42.016;23.098;2023-11-19T08:40:34;97370.81;;;6.92;91.33
7614;BME280;3848;42.016;23.098;2023-11-19T08:43:01;97370.06;;;7.03;92.88
7614;BME280;3848;42.016;23.098;2023-11-19T08:45:29;97362.59;;;7.14;89.92
7614;BME280;3848;42.016;23.098;2023-11-19T08:47:57;97367.81;;;7.32;89.46
7614;BME280;3848;42.016;23.098;2023-11-19T08:50:24;97367.91;;;7.45;88.58
7614;BME280;3848;42.016;23.098;2023-11-19T08:52:51;97377.19;;;7.47;84.27
7614;BME280;3848;42.016;23.098;2023-11-19T08:55:18;97388.13;;;7.45;83.54
7614;BME280;3848;42.016;23.098;2023-11-19T08:57:45;97383.97;;;7.50;83.49
7614;BME280;3848;42.016;23.098;2023-11-19T09:00:12;97384.88;;;7.56;84.51
7614;BME280;3848;42.016;23.098;2023-11-19T09:02:42;97399.16;;;7.50;81.31
7614;BME280;3848;42.016;23.098;2023-11-19T09:05:09;97400.00;;;7.52;82.31
7614;BME280;3848;42.016;23.098;2023-11-19T09:07:36;97406.00;;;7.64;79.94
7614;BME280;3848;42.016;23.098;2023-11-19T09:10:04;97396.84;;;7.80;80.65
7614;BME280;3848;42.016;23.098;2023-11-19T09:12:31;97374.13;;;7.89;79.26
7614;BME280;3848;42.016;23.098;2023-11-19T09:14:58;97387.66;;;7.91;77.97
7614;BME280;3848;42.016;23.098;2023-11-19T09:17:25;97388.44;;;7.83;78.66
7614;BME280;3848;42.016;23.098;2023-11-19T09:19:53;97387.66;;;7.91;77.32
7614;BME280;3848;42.016;23.098;2023-11-19T09:22:20;97382.53;;;7.85;75.85
7614;BME280;3848;42.016;23.098;2023-11-19T09:24:47;97382.47;;;7.73;75.23
7614;BME280;3848;42.016;23.098;2023-11-19T09:27:14;97373.94;;;7.63;74.40
7614;BME280;3848;42.016;23.098;2023-11-19T09:29:41;97380.69;;;7.64;75.95
7614;BME280;3848;42.016;23.098;2023-11-19T09:32:11;97378.19;;;7.69;75.13
7614;BME280;3848;42.016;23.098;2023-11-19T09:34:38;97359.72;;;7.73;75.46
7614;BME280;3848;42.016;23.098;2023-11-19T09:37:06;97344.63;;;7.90;77.33
7614;BME280;3848;42.016;23.098;2023-11-19T09:39:33;97329.56;;;8.13;74.56
7614;BME280;3848;42.016;23.098;2023-11-19T09:42:00;97333.84;;;8.31;73.68
7614;BME280;3848;42.016;23.098;2023-11-19T09:44:27;97331.41;;;8.47;72.62
7614;BME280;3848;42.016;23.098;2023-11-19T09:46:55;97345.84;;;8.74;70.93
7614;BME280;3848;42.016;23.098;2023-11-19T09:49:26;97351.84;;;8.99;69.92
7614;BME280;3848;42.016;23.098;2023-11-19T09:51:54;97347.63;;;9.03;64.66
7614;BME280;3848;42.016;23.098;2023-11-19T09:54:22;97253.75;;;8.49;63.58
7614;BME280;3848;42.016;23.098;2023-11-19T09:56:49;97323.13;;;9.00;64.86
7614;BME280;3848;42.016;23.098;2023-11-19T09:59:16;97315.50;;;9.26;65.79
7614;BME280;3848;42.016;23.098;2023-11-19T10:01:45;97304.44;;;9.88;63.70
7614;BME280;3848;42.016;23.098;2023-11-19T10:04:15;97312.53;;;10.80;61.50
7614;BME280;3848;42.016;23.098;2023-11-19T10:06:42;97293.22;;;11.67;57.28
7614;BME280;3848;42.016;23.098;2023-11-19T10:09:11;97311.41;;;12.14;55.21
7614;BME280;3848;42.016;23.098;2023-11-19T10:11:39;97309.28;;;12.51;51.99
7614;BME280;3848;42.016;23.098;2023-11-19T10:14:06;97312.19;;;12.86;52.39
7614;BME280;3848;42.016;23.098;2023-11-19T10:16:34;97312.06;;;13.50;52.36
7614;BME280;3848;42.016;23.098;2023-11-19T10:19:01;97303.41;;;14.07;48.96
7614;BME280;3848;42.016;23.098;2023-11-19T10:21:29;97292.44;;;14.45;48.64
7614;BME280;3848;42.016;23.098;2023-11-19T10:23:59;97285.66;;;14.42;47.53
7614;BME280;3848;42.016;23.098;2023-11-19T10:26:27;97285.94;;;14.70;47.55
7614;BME280;3848;42.016;23.098;2023-11-19T10:28:55;97278.25;;;15.07;47.50
7614;BME280;3848;42.016;23.098;2023-11-19T10:31:22;97274.22;;;15.33;47.01
7614;BME280;3848;42.016;23.098;2023-11-19T10:33:50;97268.81;;;15.45;44.79
7614;BME280;3848;42.016;23.098;2023-11-19T10:36:18;97273.50;;;15.28;45.58
7614;BME280;3848;42.016;23.098;2023-11-19T10:38:52;97254.53;;;15.01;45.96
7614;BME280;3848;42.016;23.098;2023-11-19T10:41:27;97262.59;;;15.19;45.45
7614;BME280;3848;42.016;23.098;2023-11-19T10:43:55;97269.50;;;15.16;44.86
7614;BME280;3848;42.016;23.098;2023-11-19T10:46:23;97264.41;;;15.16;45.73
7614;BME280;3848;42.016;23.098;2023-11-19T10:49:02;97277.09;;;15.54;45.82
7614;BME280;3848;42.016;23.098;2023-11-19T10:51:29;97247.94;;;15.62;44.17
7614;BME280;3848;42.016;23.098;2023-11-19T10:53:58;97280.81;;;16.09;45.58
7614;BME280;3848;42.016;23.098;2023-11-19T10:56:30;97276.09;;;16.25;43.61
7614;BME280;3848;42.016;23.098;2023-11-19T10:58:59;97274.31;;;16.27;43.63
7614;BME280;3848;42.016;23.098;2023-11-19T11:01:31;97268.25;;;16.30;42.50
7614;BME280;3848;42.016;23.098;2023-11-19T11:03:59;97270.72;;;16.03;42.88
7614;BME280;3848;42.016;23.098;2023-11-19T11:30:05;97223.34;;;15.19;46.25
7614;BME280;3848;42.016;23.098;2023-11-19T11:32:47;97226.88;;;14.41;44.90
7614;BME280;3848;42.016;23.098;2023-11-19T11:35:27;97221.78;;;13.56;47.78
7614;BME280;3848;42.016;23.098;2023-11-19T11:38:01;97226.69;;;13.19;48.69
7614;BME280;3848;42.016;23.098;2023-11-19T11:40:29;97220.53;;;12.76;49.18
7614;BME280;3848;42.016;23.098;2023-11-19T11:42:57;97235.88;;;12.12;50.05
7614;BME280;3848;42.016;23.098;2023-11-19T11:45:40;97235.41;;;11.79;51.80
7614;BME280;3848;42.016;23.098;2023-11-19T11:48:12;97229.03;;;11.36;53.13
7614;BME280;3848;42.016;23.098;2023-11-19T11:50:51;97228.47;;;11.08;53.32
7614;BME280;3848;42.016;23.098;2023-11-19T11:53:19;97221.72;;;10.99;54.43
7614;BME280;3848;42.016;23.098;2023-11-19T11:55:55;97211.75;;;10.76;55.35
7614;BME280;3848;42.016;23.098;2023-11-19T11:58:30;97157.88;;;10.30;55.81
7614;BME280;3848;42.016;23.098;2023-11-19T12:01:01;97219.59;;;10.39;56.30
7614;BME280;3848;42.016;23.098;2023-11-19T12:03:29;97214.59;;;10.29;57.49
7614;BME280;3848;42.016;23.098;2023-11-19T12:05:57;97200.25;;;10.23;57.50
7614;BME280;3848;42.016;23.098;2023-11-19T12:08:26;97208.72;;;10.24;57.83
7614;BME280;3848;42.016;23.098;2023-11-19T12:10:54;97205.34;;;10.11;57.66
7614;BME280;3848;42.016;23.098;2023-11-19T12:13:23;97191.88;;;9.95;57.84
7614;BME280;3848;42.016;23.098;2023-11-19T12:16:11;97142.09;;;9.71;58.85
7614;BME280;3848;42.016;23.098;2023-11-19T12:18:39;97185.97;;;10.01;59.28
7614;BME280;3848;42.016;23.098;2023-11-19T12:21:07;97198.63;;;10.02;59.66
7614;BME280;3848;42.016;23.098;2023-11-19T12:23:44;97199.50;;;10.00;59.70
7614;BME280;3848;42.016;23.098;2023-11-19T12:26:35;97190.16;;;10.06;59.59
7614;BME280;3848;42.016;23.098;2023-11-19T12:29:03;97190.16;;;10.06;59.12
7614;BME280;3848;42.016;23.098;2023-11-19T12:31:34;97199.47;;;10.07;59.08
7614;BME280;3848;42.016;23.098;2023-11-19T12:34:10;97200.31;;;10.03;59.56
7614;BME280;3848;42.016;23.098;2023-11-19T12:36:39;97197.81;;;10.02;59.44
7614;BME280;3848;42.016;23.098;2023-11-19T12:39:07;97192.69;;;10.08;60.07
7614;BME280;3848;42.016;23.098;2023-11-19T12:41:49;97162.28;;;9.94;59.44
7614;BME280;3848;42.016;23.098;2023-11-19T12:44:17;97185.91;;;10.07;58.39
7614;BME280;3848;42.016;23.098;2023-11-19T12:46:45;97121.84;;;9.65;59.90
7614;BME280;3848;42.016;23.098;2023-11-19T12:49:12;97169.88;;;10.00;58.52
7614;BME280;3848;42.016;23.098;2023-11-19T12:51:39;97142.00;;;9.90;59.72
7614;BME280;3848;42.016;23.098;2023-11-19T12:54:06;97151.25;;;9.97;59.42
7614;BME280;3848;42.016;23.098;2023-11-19T12:56:33;97136.03;;;9.97;59.77
7614;BME280;3848;42.016;23.098;2023-11-19T12:59:10;97143.63;;;10.03;58.97
7614;BME280;3848;42.016;23.098;2023-11-19T13:01:37;97137.72;;;9.99;59.03
7614;BME280;3848;42.016;23.098;2023-11-19T13:04:17;97137.72;;;9.98;59.79
7614;BME280;3848;42.016;23.098;2023-11-19T13:06:45;97140.31;;;9.92;59.65
7614;BME280;3848;42.016;23.098;2023-11-19T13:09:22;97147.06;;;9.91;59.21
7614;BME280;3848;42.016;23.098;2023-11-19T13:11:50;97141.16;;;9.89;60.66
7614;BME280;3848;42.016;23.098;2023-11-19T13:14:17;97138.63;;;9.88;60.46
7614;BME280;3848;42.016;23.098;2023-11-19T13:16:44;97122.59;;;9.83;60.55
7614;BME280;3848;42.016;23.098;2023-11-19T13:19:12;97126.84;;;9.76;59.78
7614;BME280;3848;42.016;23.098;2023-11-19T13:21:40;97121.81;;;9.68;60.22
7614;BME280;3848;42.016;23.098;2023-11-19T13:24:07;97126.91;;;9.65;60.57
7614;BME280;3848;42.016;23.098;2023-11-19T13:26:34;97129.41;;;9.70;61.07
7614;BME280;3848;42.016;23.098;2023-11-19T13:29:01;97131.97;;;9.68;62.05
7614;BME280;3848;42.016;23.098;2023-11-19T13:31:28;97144.66;;;9.68;60.78
7614;BME280;3848;42.016;23.098;2023-11-19T13:33:55;97153.94;;;9.69;61.39
7614;BME280;3848;42.016;23.098;2023-11-19T13:36:23;97156.47;;;9.74;59.82
7614;BME280;3848;42.016;23.098;2023-11-19T13:38:53;97160.72;;;9.70;61.28
7614;BME280;3848;42.016;23.098;2023-11-19T13:41:24;97159.88;;;9.67;60.75